createdAt,value
2017-08-13T00:02:02.655Z,19.23
2017-08-13T00:04:13.064Z,19.19
2017-08-13T00:06:36.924Z,19.08
2017-08-13T00:09:01.138Z,19.15
2017-08-13T00:11:24.918Z,19.12
2017-08-13T00:13:50.117Z,19.17
2017-08-13T00:16:14.054Z,19.04
2017-08-13T00:18:38.802Z,19.01
2017-08-13T00:21:02.696Z,19.07
2017-08-13T00:23:27.686Z,19.07
2017-08-13T00:25:53.608Z,19.04
2017-08-13T00:28:17.597Z,19.23
2017-08-13T00:30:43.630Z,19.41
2017-08-13T00:33:07.557Z,19.19
2017-08-13T00:35:31.483Z,19.23
2017-08-13T00:37:55.427Z,19.27
2017-08-13T00:40:25.890Z,19.39
2017-08-13T00:42:27.747Z,19.47
2017-08-13T00:44:04.036Z,19.12
2017-08-13T00:46:28.092Z,19.44
2017-08-13T00:48:52.060Z,19.41
2017-08-13T00:51:15.939Z,19.24
2017-08-13T00:53:46.484Z,19.15
2017-08-13T00:56:11.481Z,19.29
2017-08-13T00:58:35.338Z,19.39
2017-08-13T01:00:59.222Z,19.2
2017-08-13T01:03:23.115Z,19.17
2017-08-13T01:05:46.979Z,19.09
2017-08-13T01:08:11.893Z,19.19
2017-08-13T01:10:35.898Z,19.16
2017-08-13T01:13:01.916Z,18.96
2017-08-13T01:15:40.444Z,18.94
2017-08-13T01:18:06.454Z,19.08
2017-08-13T01:20:30.614Z,19.12
2017-08-13T01:22:54.323Z,19.01
2017-08-13T01:25:18.298Z,19.11
2017-08-13T01:27:40.419Z,18.86
2017-08-13T01:30:04.403Z,19.05
2017-08-13T01:32:29.397Z,19.04
2017-08-13T01:34:54.333Z,18.98
2017-08-13T01:37:24.935Z,19.01
2017-08-13T01:39:50.863Z,19.11
2017-08-13T01:42:01.248Z,19.19
2017-08-13T01:44:16.824Z,19.17
2017-08-13T01:46:42.733Z,19.16
2017-08-13T01:49:06.731Z,19.08
2017-08-13T01:51:30.682Z,19.23
2017-08-13T01:53:54.802Z,19.08
2017-08-13T01:56:18.650Z,19.16
2017-08-13T01:58:49.369Z,19.08
2017-08-13T02:01:13.263Z,19.01
2017-08-13T02:03:38.166Z,19
2017-08-13T02:06:09.615Z,19.04
2017-08-13T02:08:33.495Z,18.92
2017-08-13T02:11:05.153Z,18.88
2017-08-13T02:13:07.322Z,18.89
2017-08-13T02:15:31.311Z,18.83
2017-08-13T02:17:55.286Z,18.89
2017-08-13T02:20:20.311Z,18.98
2017-08-13T02:22:45.288Z,18.97
2017-08-13T02:25:09.267Z,19.08
2017-08-13T02:27:33.240Z,18.88
2017-08-13T02:29:58.145Z,18.88
2017-08-13T02:32:22.042Z,18.88
2017-08-13T02:34:52.602Z,18.97
2017-08-13T02:37:16.549Z,18.88
2017-08-13T02:39:31.941Z,19.07
2017-08-13T02:41:56.925Z,19.16
2017-08-13T02:44:14.451Z,19.04
2017-08-13T02:46:38.433Z,19.09
2017-08-13T02:49:03.430Z,18.91
2017-08-13T02:51:27.409Z,19.01
2017-08-13T02:53:51.418Z,19.08
2017-08-13T02:56:15.374Z,18.81
2017-08-13T02:58:39.361Z,18.96
2017-08-13T03:01:04.313Z,19.17
2017-08-13T03:03:06.087Z,18.97
2017-08-13T03:05:30.114Z,18.94
2017-08-13T03:07:55.118Z,18.91
2017-08-13T03:10:19.072Z,19.01
2017-08-13T03:12:45.004Z,18.91
2017-08-13T03:15:09.113Z,19.01
2017-08-13T03:17:33.015Z,18.79
2017-08-13T03:19:57.863Z,19.08
2017-08-13T03:22:21.740Z,19.05
2017-08-13T03:24:37.215Z,19.05
2017-08-13T03:27:03.155Z,19.15
2017-08-13T03:29:27.029Z,19.09
2017-08-13T03:31:51.001Z,19.32
2017-08-13T03:34:15.905Z,19.19
2017-08-13T03:36:40.910Z,19.2
2017-08-13T03:38:42.758Z,19.32
2017-08-13T03:40:44.599Z,19.45
2017-08-13T03:43:08.489Z,19.3
2017-08-13T03:45:40.056Z,19.34
2017-08-13T03:48:03.906Z,19.34
2017-08-13T03:50:27.817Z,19.44
2017-08-13T03:52:51.808Z,19.52
2017-08-13T03:55:02.198Z,19.48
2017-08-13T03:57:18.763Z,19.26
2017-08-13T03:59:42.739Z,19.37
2017-08-13T04:02:08.770Z,19.32
2017-08-13T04:03:45.107Z,19.53
2017-08-13T04:06:10.134Z,19.49
2017-08-13T04:08:34.109Z,19.41
2017-08-13T04:10:58.088Z,19.26
2017-08-13T04:13:08.480Z,19.19
2017-08-13T04:15:32.378Z,19.27
2017-08-13T04:17:58.431Z,19.3
2017-08-13T04:20:24.302Z,19.38
2017-08-13T04:22:49.293Z,19.12
2017-08-13T04:25:14.195Z,19.2
2017-08-13T04:27:38.070Z,19.23
2017-08-13T04:29:48.410Z,19.35
2017-08-13T04:32:12.406Z,19.15
2017-08-13T04:34:38.340Z,19.37
2017-08-13T04:37:02.311Z,19.52
2017-08-13T04:38:38.608Z,19.45
2017-08-13T04:41:03.572Z,19.64
2017-08-13T04:43:13.931Z,19.44
2017-08-13T04:45:37.912Z,19.37
2017-08-13T04:48:01.892Z,19.22
2017-08-13T04:50:25.890Z,19.49
2017-08-13T04:52:49.845Z,19.3
2017-08-13T04:55:13.829Z,19.27
2017-08-13T04:57:37.813Z,19.32
2017-08-13T05:00:01.783Z,19.35
2017-08-13T05:02:26.786Z,19.42
2017-08-13T05:04:59.366Z,19.23
2017-08-13T05:07:23.330Z,19.47
2017-08-13T05:09:47.375Z,19.64
2017-08-13T05:12:11.316Z,19.53
2017-08-13T05:14:36.320Z,19.63
2017-08-13T05:17:00.288Z,19.44
2017-08-13T05:19:25.314Z,19.6
2017-08-13T05:21:55.835Z,19.47
2017-08-13T05:24:19.747Z,19.52
2017-08-13T05:26:44.725Z,19.79
2017-08-13T05:29:15.350Z,19.74
2017-08-13T05:31:30.863Z,19.74
2017-08-13T05:33:54.907Z,19.81
2017-08-13T05:36:18.991Z,19.75
2017-08-13T05:38:42.974Z,19.84
2017-08-13T05:41:09.044Z,19.75
2017-08-13T05:43:33.108Z,19.9
2017-08-13T05:46:04.845Z,19.79
2017-08-13T05:48:28.817Z,19.78
2017-08-13T05:50:59.379Z,19.56
2017-08-13T05:53:23.330Z,19.66
2017-08-13T05:55:47.417Z,19.84
2017-08-13T05:57:57.784Z,20.1
2017-08-13T06:00:22.885Z,20.24
2017-08-13T06:02:24.690Z,20.22
2017-08-13T06:04:50.774Z,20.19
2017-08-13T06:07:14.761Z,20.29
2017-08-13T06:09:39.857Z,20.73
2017-08-13T06:11:15.682Z,20.21
2017-08-13T06:12:51.952Z,20.67
2017-08-13T06:15:16.029Z,20.73
2017-08-13T06:17:41.162Z,20.52
2017-08-13T06:20:11.893Z,20.67
2017-08-13T06:22:35.932Z,20.58
2017-08-13T06:25:00.062Z,20.71
2017-08-13T06:27:24.060Z,20.92
2017-08-13T06:29:48.121Z,20.98
2017-08-13T06:32:12.201Z,21.4
2017-08-13T06:34:37.341Z,21.03
2017-08-13T06:37:03.441Z,21.33
2017-08-13T06:39:28.648Z,21.62
2017-08-13T06:41:44.345Z,22.25
2017-08-13T06:43:20.996Z,21.99
2017-08-13T06:45:45.173Z,22.03
2017-08-13T06:48:16.020Z,21.83
2017-08-13T06:50:40.181Z,21.7
2017-08-13T06:53:04.304Z,21.83
2017-08-13T06:55:28.404Z,22.21
2017-08-13T06:57:52.661Z,22.03
2017-08-13T07:00:18.890Z,23.08
2017-08-13T07:02:43.203Z,24.11
2017-08-13T07:04:59.039Z,24.93
2017-08-13T07:07:23.381Z,28.67
2017-08-13T07:09:49.927Z,28.2
2017-08-13T07:12:14.556Z,28.96
2017-08-13T07:14:40.639Z,26.96
2017-08-13T07:17:05.761Z,27.3
2017-08-13T07:19:30.725Z,28.01
2017-08-13T07:21:56.961Z,27.45
2017-08-13T07:24:22.271Z,27.33
2017-08-13T07:26:49.632Z,27.76
2017-08-13T07:29:15.052Z,26.86
2017-08-13T07:31:40.320Z,25.71
2017-08-13T07:34:05.469Z,26.96
2017-08-13T07:36:31.628Z,27.5
2017-08-13T07:38:56.690Z,25.58
2017-08-13T07:41:21.718Z,25
2017-08-13T07:45:22.850Z,24.63
2017-08-13T07:47:47.660Z,25.63
2017-08-13T07:50:12.382Z,27.18
2017-08-13T07:54:13.382Z,27.34
2017-08-13T07:56:38.529Z,26.18
2017-08-13T07:58:14.838Z,27
2017-08-13T08:00:39.591Z,28.25
2017-08-13T08:02:55.923Z,27.9
2017-08-13T08:05:20.815Z,27.73
2017-08-13T08:07:45.704Z,29.9
2017-08-13T08:10:10.649Z,29.74
2017-08-13T08:14:11.864Z,29.53
2017-08-13T08:16:28.528Z,28.94
2017-08-13T08:18:45.058Z,28.28
2017-08-13T08:20:55.830Z,29.37
2017-08-13T08:23:20.893Z,28.68
2017-08-13T08:25:45.938Z,27.73
2017-08-13T08:28:10.932Z,27
2017-08-13T08:30:35.948Z,25.83
2017-08-13T08:33:01.509Z,24.68
2017-08-13T08:37:01.566Z,24.65
2017-08-13T08:39:26.390Z,25.48
2017-08-13T08:41:51.106Z,26.42
2017-08-13T08:44:15.856Z,26.23
2017-08-13T08:46:40.663Z,26.66
2017-08-13T08:49:05.386Z,25.77
2017-08-13T08:53:06.362Z,25.24
2017-08-13T08:55:31.092Z,25.59
2017-08-13T08:57:55.742Z,24.65
2017-08-13T09:00:20.345Z,24.34
2017-08-13T09:02:44.907Z,24.66
2017-08-13T09:05:09.448Z,24.89
2017-08-13T09:07:34.002Z,24.37
2017-08-13T09:09:50.103Z,24.61
2017-08-13T09:12:14.703Z,24.68
2017-08-13T09:14:39.287Z,24.36
2017-08-13T09:17:03.727Z,24.71
2017-08-13T09:19:28.274Z,23.51
2017-08-13T09:21:52.765Z,23.79
2017-08-13T09:23:54.733Z,24.1
2017-08-13T09:25:56.685Z,23.51
2017-08-13T09:28:21.132Z,23.64
2017-08-13T09:30:14.645Z,23.79
2017-08-13T09:32:39.138Z,24.07
2017-08-13T09:35:03.528Z,23.52
2017-08-13T09:37:11.037Z,24.44
2017-08-13T09:41:10.158Z,24
2017-08-13T09:43:12.115Z,24.32
2017-08-13T09:45:36.479Z,23.47
2017-08-13T09:47:52.473Z,23.58
2017-08-13T09:49:53.964Z,23.07
2017-08-13T09:52:18.412Z,23.23
2017-08-13T09:54:43.849Z,22.91
2017-08-13T09:57:08.129Z,23.45
2017-08-13T09:59:32.402Z,24.19
2017-08-13T10:01:56.828Z,24.62
2017-08-13T10:04:21.284Z,24.79
2017-08-13T10:06:45.667Z,25.33
2017-08-13T10:09:10.164Z,25.73
2017-08-13T10:11:34.657Z,25.39
2017-08-13T10:13:59.151Z,25.03
2017-08-13T10:16:23.639Z,24.92
2017-08-13T10:18:25.701Z,24.43
2017-08-13T10:20:41.602Z,24.63
2017-08-13T10:23:05.985Z,25.18
2017-08-13T10:25:30.377Z,25.14
2017-08-13T10:27:54.762Z,25.71
2017-08-13T10:30:19.330Z,26.81
2017-08-13T10:32:43.765Z,26.78
2017-08-13T10:35:08.688Z,24.66
2017-08-13T10:37:33.036Z,24.82
2017-08-13T10:39:36.861Z,24.46
2017-08-13T10:42:07.029Z,25.07
2017-08-13T10:44:33.942Z,25.96
2017-08-13T10:46:35.418Z,25.74
2017-08-13T10:49:00.008Z,25.8
2017-08-13T10:51:25.062Z,26.59
2017-08-13T10:53:58.268Z,26.63
2017-08-13T10:56:23.058Z,26.61
2017-08-13T10:58:47.853Z,26.13
2017-08-13T11:01:13.068Z,27.37
2017-08-13T11:03:37.767Z,26.86
2017-08-13T11:05:48.074Z,26.81
2017-08-13T11:08:12.817Z,27.68
2017-08-13T11:10:37.514Z,27.03
2017-08-13T11:13:02.314Z,27.86
2017-08-13T11:17:03.244Z,26.45
2017-08-13T11:19:13.876Z,27.67
2017-08-13T11:21:38.733Z,27.73
2017-08-13T11:23:55.009Z,28.5
2017-08-13T11:26:19.709Z,28.2
2017-08-13T11:28:44.429Z,27.01
2017-08-13T11:31:09.180Z,27.53
2017-08-13T11:33:33.940Z,27.66
2017-08-13T11:35:58.680Z,27.03
2017-08-13T11:39:55.594Z,28.37
2017-08-13T11:42:05.720Z,28.5
2017-08-13T11:44:30.508Z,29.49
2017-08-13T11:46:55.319Z,28.55
2017-08-13T11:49:20.064Z,27.73
2017-08-13T11:51:44.874Z,28
2017-08-13T11:54:09.635Z,28.82
2017-08-13T11:56:28.115Z,29.96
2017-08-13T11:58:29.657Z,29.5
2017-08-13T12:00:31.842Z,28.9
2017-08-13T12:04:33.000Z,28.2
2017-08-13T12:06:57.905Z,28.31
2017-08-13T12:08:34.231Z,27.97
2017-08-13T12:10:59.035Z,27.95
2017-08-13T12:13:23.827Z,28.19
2017-08-13T12:15:48.620Z,27.4
2017-08-13T12:18:13.350Z,26.53
2017-08-13T12:20:38.118Z,26.97
2017-08-13T12:22:48.707Z,26.59
2017-08-13T12:25:22.081Z,26.52
2017-08-13T12:27:46.782Z,26.82
2017-08-13T12:30:11.466Z,27.15
2017-08-13T12:32:36.126Z,27.67
2017-08-13T12:36:36.468Z,27.13
2017-08-13T12:38:38.481Z,27.52
2017-08-13T12:41:03.194Z,27.71
2017-08-13T12:45:07.924Z,27.82
2017-08-13T12:47:32.645Z,27.94
2017-08-13T12:49:57.335Z,28.25
2017-08-13T12:52:21.985Z,28.5
2017-08-13T12:54:46.680Z,28.38
2017-08-13T12:57:11.348Z,28.41
2017-08-13T12:59:36.063Z,28.15
2017-08-13T13:02:00.760Z,28.23
2017-08-13T13:03:37.137Z,28.19
2017-08-13T13:06:01.951Z,27.55
2017-08-13T13:08:27.692Z,27.48
2017-08-13T13:10:52.366Z,27.44
2017-08-13T13:21:08.636Z,28.57
2017-08-13T13:23:36.194Z,28.9
2017-08-13T13:29:07.466Z,28.15
2017-08-13T13:33:01.131Z,27.75
2017-08-13T13:37:02.584Z,28.03
2017-08-13T13:39:27.483Z,27.72
2017-08-13T13:41:55.284Z,27.81
2017-08-13T13:44:20.250Z,27.83
2017-08-13T13:46:45.064Z,28.22
2017-08-13T13:49:09.800Z,28.33
2017-08-13T13:51:26.057Z,27.58
2017-08-13T13:53:54.718Z,27.6
2017-08-13T13:56:17.748Z,27.57
2017-08-13T13:58:42.544Z,27.83
2017-08-13T14:01:07.320Z,27.71
2017-08-13T14:03:32.069Z,28.43
2017-08-13T14:05:56.856Z,28.18
2017-08-13T14:08:21.593Z,28.25
2017-08-13T14:10:47.384Z,27.52
2017-08-13T14:13:12.121Z,28.52
2017-08-13T14:15:38.003Z,27.86
2017-08-13T14:18:02.771Z,28.75
2017-08-13T14:20:27.560Z,28.9
2017-08-13T14:22:54.451Z,29.49
2017-08-13T14:25:19.224Z,28.2
2017-08-13T14:27:43.960Z,27.48
2017-08-13T14:30:08.715Z,27.45
2017-08-13T14:32:34.536Z,27.35
2017-08-13T14:35:07.935Z,27.45
2017-08-13T14:37:32.662Z,27.48
2017-08-13T14:39:57.403Z,27.2
2017-08-13T14:42:22.143Z,26.97
2017-08-13T14:44:46.847Z,27.22
2017-08-13T14:47:03.055Z,26.93
2017-08-13T14:49:27.825Z,27.71
2017-08-13T14:51:44.021Z,27.91
2017-08-13T14:54:23.470Z,28.33
2017-08-13T14:56:48.131Z,27.48
2017-08-13T14:59:21.451Z,27.72
2017-08-13T15:01:46.105Z,27.05
2017-08-13T15:04:10.746Z,27.48
2017-08-13T15:06:35.411Z,27.15
2017-08-13T15:09:00.009Z,27.63
2017-08-13T15:11:24.648Z,27.37
2017-08-13T15:13:40.810Z,27.76
2017-08-13T15:16:14.440Z,27.22
2017-08-13T15:18:39.116Z,27.29
2017-08-13T15:21:03.744Z,27.13
2017-08-13T15:23:28.369Z,27.35
2017-08-13T15:25:53.016Z,27.48
2017-08-13T15:28:17.653Z,26.46
2017-08-13T15:30:42.345Z,26.59
2017-08-13T15:33:06.991Z,26.6
2017-08-13T15:35:47.480Z,25.98
2017-08-13T15:37:58.094Z,26.13
2017-08-13T15:40:08.675Z,25.73
2017-08-13T15:42:24.845Z,25.93
2017-08-13T15:44:49.458Z,25.19
2017-08-13T15:47:14.033Z,25.66
2017-08-13T15:49:38.617Z,24.94
2017-08-13T15:52:03.152Z,25.03
2017-08-13T15:54:27.746Z,24.59
2017-08-13T15:56:59.043Z,24.93
2017-08-13T15:59:23.496Z,24.69
2017-08-13T16:01:47.966Z,24.97
2017-08-13T16:04:12.417Z,25.19
2017-08-13T16:06:22.993Z,25.21
2017-08-13T16:08:47.443Z,25.26
2017-08-13T16:11:11.891Z,25.73
2017-08-13T16:15:12.031Z,24.93
2017-08-13T16:17:22.070Z,25.04
2017-08-13T16:19:21.198Z,24.75
2017-08-13T16:21:45.677Z,24.77
2017-08-13T16:24:10.125Z,25.14
2017-08-13T16:26:34.616Z,24.85
2017-08-13T16:28:59.060Z,24.71
2017-08-13T16:32:59.777Z,24.59
2017-08-13T16:35:24.219Z,25.03
2017-08-13T16:37:48.628Z,25.22
2017-08-13T16:40:13.039Z,25.25
2017-08-13T16:42:14.998Z,25.21
2017-08-13T16:44:25.496Z,25.89
2017-08-13T16:46:49.934Z,25.85
2017-08-13T16:49:14.344Z,25.31
2017-08-13T16:51:16.332Z,25.52
2017-08-13T16:53:40.789Z,25.78
2017-08-13T16:56:05.259Z,25.96
2017-08-13T16:58:29.718Z,26.19
2017-08-13T17:00:54.125Z,26.36
2017-08-13T17:04:54.830Z,26.68
2017-08-13T17:06:56.402Z,26.79
2017-08-13T17:09:12.499Z,26.68
2017-08-13T17:11:36.942Z,26.46
2017-08-13T17:14:01.443Z,25.99
2017-08-13T17:16:25.958Z,25.78
2017-08-13T17:18:50.474Z,25.83
2017-08-13T17:22:50.775Z,25.73
2017-08-13T17:25:15.284Z,25.4
2017-08-13T17:27:39.789Z,25.21
2017-08-13T17:30:04.261Z,25.39
2017-08-13T17:32:28.687Z,25.43
2017-08-13T17:34:53.136Z,25.25
2017-08-13T17:37:16.145Z,24.94
2017-08-13T17:39:40.623Z,24.93
2017-08-13T17:42:05.064Z,25.12
2017-08-13T17:44:29.549Z,25.14
2017-08-13T17:46:54.011Z,24.82
2017-08-13T17:49:19.442Z,24.69
2017-08-13T17:51:45.874Z,24.96
2017-08-13T17:55:47.252Z,24.43
2017-08-13T17:58:11.632Z,24.24
2017-08-13T18:00:35.991Z,24.47
2017-08-13T18:03:00.671Z,24.37
2017-08-13T18:05:41.768Z,24.21
2017-08-13T18:08:06.167Z,24.26
2017-08-13T18:10:30.541Z,24.31
2017-08-13T18:12:40.554Z,24.51
2017-08-13T18:15:04.946Z,24.24
2017-08-13T18:17:29.301Z,24.41
2017-08-13T18:19:53.566Z,24.29
2017-08-13T18:22:17.930Z,24.46
2017-08-13T18:24:42.205Z,24.5
2017-08-13T18:27:06.534Z,24.44
2017-08-13T18:31:07.850Z,24.36
2017-08-13T18:33:32.167Z,24.19
2017-08-13T18:35:56.517Z,24.19
2017-08-13T18:38:12.396Z,24.31
2017-08-13T18:40:36.706Z,24.32
2017-08-13T18:42:52.558Z,24.31
2017-08-13T18:45:25.952Z,24.18
2017-08-13T18:47:50.249Z,24.11
2017-08-13T18:50:14.534Z,23.96
2017-08-13T18:52:38.798Z,23.99
2017-08-13T18:55:03.067Z,24.1
2017-08-13T18:57:34.445Z,23.99
2017-08-13T18:59:50.307Z,24.01
2017-08-13T19:02:14.619Z,23.92
2017-08-13T19:04:38.947Z,23.85
2017-08-13T19:07:03.321Z,23.84
2017-08-13T19:09:27.591Z,23.77
2017-08-13T19:13:28.056Z,23.49
2017-08-13T19:15:03.866Z,23.59
2017-08-13T19:17:28.266Z,23.63
2017-08-13T19:19:52.551Z,23.55
2017-08-13T19:22:16.777Z,23.28
2017-08-13T19:24:41.044Z,23.32
2017-08-13T19:27:05.288Z,23.34
2017-08-13T19:29:29.513Z,23.34
2017-08-13T19:32:00.758Z,23.4
2017-08-13T19:34:25.003Z,23.36
2017-08-13T19:36:40.746Z,23.33
2017-08-13T19:39:04.970Z,23.25
2017-08-13T19:41:29.156Z,23.17
2017-08-13T19:43:53.680Z,23.14
2017-08-13T19:46:19.923Z,23.07
2017-08-13T19:48:44.454Z,23.13
2017-08-13T19:52:44.377Z,22.92
2017-08-13T19:55:08.643Z,22.76
2017-08-13T19:57:32.777Z,22.55
2017-08-13T19:59:56.949Z,22.51
2017-08-13T20:02:21.144Z,22.68
2017-08-13T20:04:45.284Z,22.67
2017-08-13T20:08:48.449Z,22.63
2017-08-13T20:11:12.637Z,22.43
2017-08-13T20:13:36.762Z,22.43
2017-08-13T20:16:00.888Z,22.44
2017-08-13T20:18:03.766Z,22.21
2017-08-13T20:20:27.952Z,22.1
2017-08-13T20:22:52.757Z,22.46
2017-08-13T20:25:18.937Z,22.51
2017-08-13T20:30:55.305Z,22.61
2017-08-13T20:33:19.443Z,22.53
2017-08-13T20:35:43.600Z,22.7
2017-08-13T20:38:08.803Z,22.74
2017-08-13T20:40:32.948Z,22.77
2017-08-13T20:42:57.039Z,22.77
2017-08-13T20:45:22.269Z,22.73
2017-08-13T20:48:02.164Z,22.77
2017-08-13T20:50:26.291Z,22.77
2017-08-13T20:52:50.384Z,22.8
2017-08-13T20:55:14.529Z,22.77
2017-08-13T20:57:38.754Z,22.83
2017-08-13T21:00:05.000Z,22.84
2017-08-13T21:02:36.133Z,22.71
2017-08-13T21:05:00.311Z,22.62
2017-08-13T21:07:32.212Z,22.59
2017-08-13T21:09:56.355Z,22.63
2017-08-13T21:12:20.523Z,22.77
2017-08-13T21:14:44.677Z,22.81
2017-08-13T21:17:08.819Z,22.81
2017-08-13T21:19:32.883Z,22.76
2017-08-13T21:21:56.998Z,22.78
2017-08-13T21:24:21.167Z,22.83
2017-08-13T21:26:46.377Z,22.81
2017-08-13T21:30:46.298Z,22.78
2017-08-13T21:33:10.471Z,22.52
2017-08-13T21:34:47.542Z,22.37
2017-08-13T21:36:48.981Z,22.36
2017-08-13T21:39:13.187Z,22.58
2017-08-13T21:41:14.562Z,22.63
2017-08-13T21:43:38.748Z,22.58
2017-08-13T21:45:48.699Z,22.81
2017-08-13T21:48:12.876Z,22.73
2017-08-13T21:50:37.039Z,22.65
2017-08-13T21:53:01.082Z,22.53
2017-08-13T21:55:25.197Z,22.4
2017-08-13T21:57:49.288Z,22.51
2017-08-13T22:00:13.450Z,22.63
2017-08-13T22:02:52.624Z,22.7
2017-08-13T22:05:16.806Z,22.51
2017-08-13T22:07:40.882Z,22.34
2017-08-13T22:09:56.561Z,22.46
2017-08-13T22:12:20.649Z,22.49
2017-08-13T22:14:36.319Z,22.62
2017-08-13T22:17:00.433Z,22.62
2017-08-13T22:18:36.731Z,22.63
2017-08-13T22:20:38.652Z,22.8
2017-08-13T22:23:19.523Z,22.65
2017-08-13T22:25:43.666Z,22.49
2017-08-13T22:28:07.783Z,22.51
2017-08-13T22:30:31.944Z,22.56
2017-08-13T22:32:58.013Z,22.51
2017-08-13T22:35:22.123Z,22.52
2017-08-13T22:37:46.251Z,22.52
2017-08-13T22:40:10.337Z,22.44
2017-08-13T22:42:34.429Z,22.51
2017-08-13T22:44:59.599Z,22.38
2017-08-13T22:47:23.730Z,22.38
2017-08-13T22:49:48.933Z,22.4
2017-08-13T22:52:13.041Z,22.38
2017-08-13T22:54:38.148Z,22.36
2017-08-13T22:57:02.247Z,22.18
2017-08-13T22:59:19.938Z,22.21
2017-08-13T23:01:44.057Z,22.16
2017-08-13T23:03:20.367Z,22.34
2017-08-13T23:05:52.250Z,22.26
2017-08-13T23:07:28.049Z,22.36
2017-08-13T23:09:52.204Z,22.14
2017-08-13T23:12:16.294Z,22.08
2017-08-13T23:13:52.137Z,22
2017-08-13T23:16:16.215Z,21.54
2017-08-13T23:18:18.070Z,21.8
2017-08-13T23:20:42.239Z,21.94
2017-08-13T23:23:06.317Z,21.89
2017-08-13T23:25:30.363Z,22.04
2017-08-13T23:27:54.478Z,22.1
2017-08-13T23:30:18.558Z,21.97
2017-08-13T23:32:42.670Z,21.97
2017-08-13T23:34:58.233Z,21.69
2017-08-13T23:37:22.414Z,21.94
2017-08-13T23:39:46.444Z,21.63
2017-08-13T23:42:10.575Z,21.59
2017-08-13T23:44:34.630Z,21.44
2017-08-13T23:46:58.734Z,21.62
2017-08-13T23:49:24.972Z,21.8
2017-08-13T23:51:26.889Z,21.96
2017-08-13T23:53:50.891Z,21.92
2017-08-13T23:56:14.927Z,21.62
2017-08-13T23:58:41.029Z,21.72
